sensor_id;sensor_type;location;lat;lon;timestamp;pressure;altitude;pressure_sealevel;temperature;humidity
8286;BME280;4181;43.416;24.598;2023-05-23T00:01:17;99701.34;;;17.21;100.00
8286;BME280;4181;43.416;24.598;2023-05-23T00:03:42;99695.53;;;17.36;100.00
8286;BME280;4181;43.416;24.598;2023-05-23T00:06:08;99693.44;;;17.46;100.00
8286;BME280;4181;43.416;24.598;2023-05-23T00:08:34;99687.81;;;17.51;100.00
8286;BME280;4181;43.416;24.598;2023-05-23T00:10:59;99695.56;;;17.63;100.00
8286;BME280;4181;43.416;24.598;2023-05-23T00:13:25;99704.06;;;17.66;100.00
8286;BME280;4181;43.416;24.598;2023-05-23T00:15:51;99702.66;;;17.55;100.00
8286;BME280;4181;43.416;24.598;2023-05-23T00:18:17;99694.34;;;17.69;100.00
8286;BME280;4181;43.416;24.598;2023-05-23T00:20:44;99698.53;;;17.80;100.00
8286;BME280;4181;43.416;24.598;2023-05-23T00:23:11;99694.13;;;17.79;100.00
8286;BME280;4181;43.416;24.598;2023-05-23T00:25:44;99696.84;;;17.93;100.00
8286;BME280;4181;43.416;24.598;2023-05-23T00:28:12;99703.47;;;18.05;100.00
8286;BME280;4181;43.416;24.598;2023-05-23T00:30:38;99712.16;;;18.12;100.00
8286;BME280;4181;43.416;24.598;2023-05-23T00:33:03;99719.00;;;18.15;100.00
8286;BME280;4181;43.416;24.598;2023-05-23T00:35:29;99726.16;;;18.16;100.00
8286;BME280;4181;43.416;24.598;2023-05-23T00:37:55;99735.88;;;18.13;100.00
8286;BME280;4181;43.416;24.598;2023-05-23T00:40:21;99741.72;;;17.98;100.00
8286;BME280;4181;43.416;24.598;2023-05-23T00:42:46;99750.84;;;17.85;100.00
8286;BME280;4181;43.416;24.598;2023-05-23T00:45:12;99760.53;;;17.83;100.00
8286;BME280;4181;43.416;24.598;2023-05-23T00:47:41;99754.44;;;17.86;100.00
8286;BME280;4181;43.416;24.598;2023-05-23T00:50:10;99751.47;;;17.82;100.00
8286;BME280;4181;43.416;24.598;2023-05-23T00:52:36;99751.38;;;17.87;100.00
8286;BME280;4181;43.416;24.598;2023-05-23T00:55:01;99750.75;;;17.90;100.00
8286;BME280;4181;43.416;24.598;2023-05-23T00:57:27;99755.53;;;17.57;100.00
8286;BME280;4181;43.416;24.598;2023-05-23T00:59:52;99773.28;;;17.38;100.00
8286;BME280;4181;43.416;24.598;2023-05-23T01:02:18;99771.13;;;17.21;100.00
8286;BME280;4181;43.416;24.598;2023-05-23T01:04:48;99764.47;;;17.09;100.00
8286;BME280;4181;43.416;24.598;2023-05-23T01:07:20;99760.31;;;16.93;100.00
8286;BME280;4181;43.416;24.598;2023-05-23T01:09:46;99750.25;;;16.70;100.00
8286;BME280;4181;43.416;24.598;2023-05-23T01:12:19;99741.03;;;16.93;100.00
8286;BME280;4181;43.416;24.598;2023-05-23T01:15:02;99735.59;;;16.88;100.00
8286;BME280;4181;43.416;24.598;2023-05-23T01:17:54;99743.34;;;16.72;100.00
8286;BME280;4181;43.416;24.598;2023-05-23T01:20:29;99730.91;;;16.88;100.00
8286;BME280;4181;43.416;24.598;2023-05-23T01:27:56;99734.72;;;16.92;100.00
8286;BME280;4181;43.416;24.598;2023-05-23T01:30:24;99749.63;;;16.73;100.00
8286;BME280;4181;43.416;24.598;2023-05-23T01:32:53;99750.16;;;16.75;100.00
8286;BME280;4181;43.416;24.598;2023-05-23T01:35:24;99757.72;;;16.83;100.00
8286;BME280;4181;43.416;24.598;2023-05-23T01:37:55;99744.66;;;16.75;100.00
8286;BME280;4181;43.416;24.598;2023-05-23T01:40:22;99747.59;;;16.97;100.00
8286;BME280;4181;43.416;24.598;2023-05-23T01:42:48;99749.13;;;17.03;100.00
8286;BME280;4181;43.416;24.598;2023-05-23T01:45:15;99753.84;;;17.02;100.00
8286;BME280;4181;43.416;24.598;2023-05-23T01:47:42;99755.41;;;16.90;100.00
8286;BME280;4181;43.416;24.598;2023-05-23T01:50:09;99757.72;;;16.83;100.00
8286;BME280;4181;43.416;24.598;2023-05-23T01:52:34;99754.44;;;16.81;100.00
8286;BME280;4181;43.416;24.598;2023-05-23T01:55:01;99747.50;;;16.70;100.00
8286;BME280;4181;43.416;24.598;2023-05-23T01:57:28;99747.56;;;16.65;100.00
8286;BME280;4181;43.416;24.598;2023-05-23T01:59:55;99754.50;;;16.62;100.00
8286;BME280;4181;43.416;24.598;2023-05-23T02:02:20;99743.63;;;16.71;100.00
8286;BME280;4181;43.416;24.598;2023-05-23T02:04:48;99745.09;;;16.82;100.00
8286;BME280;4181;43.416;24.598;2023-05-23T02:07:13;99736.72;;;16.87;100.00
8286;BME280;4181;43.416;24.598;2023-05-23T02:09:39;99758.16;;;16.90;100.00
8286;BME280;4181;43.416;24.598;2023-05-23T02:12:04;99760.25;;;16.79;100.00
8286;BME280;4181;43.416;24.598;2023-05-23T02:14:30;99770.13;;;16.67;100.00
8286;BME280;4181;43.416;24.598;2023-05-23T02:16:55;99764.00;;;16.70;100.00
8286;BME280;4181;43.416;24.598;2023-05-23T02:19:21;99763.78;;;16.66;100.00
8286;BME280;4181;43.416;24.598;2023-05-23T02:21:46;99759.78;;;16.77;100.00
8286;BME280;4181;43.416;24.598;2023-05-23T02:24:12;99773.81;;;16.76;100.00
8286;BME280;4181;43.416;24.598;2023-05-23T02:26:37;99785.97;;;16.75;100.00
8286;BME280;4181;43.416;24.598;2023-05-23T02:29:03;99790.31;;;16.62;100.00
8286;BME280;4181;43.416;24.598;2023-05-23T02:31:29;99794.84;;;16.53;100.00
8286;BME280;4181;43.416;24.598;2023-05-23T02:33:55;99805.03;;;16.53;100.00
8286;BME280;4181;43.416;24.598;2023-05-23T02:36:20;99802.81;;;16.55;100.00
8286;BME280;4181;43.416;24.598;2023-05-23T02:38:45;99802.75;;;16.60;100.00
8286;BME280;4181;43.416;24.598;2023-05-23T02:41:11;99795.59;;;16.59;100.00
8286;BME280;4181;43.416;24.598;2023-05-23T02:43:37;99810.84;;;16.51;100.00
8286;BME280;4181;43.416;24.598;2023-05-23T02:46:02;99810.75;;;16.37;100.00
8286;BME280;4181;43.416;24.598;2023-05-23T02:48:28;99811.13;;;16.31;100.00
8286;BME280;4181;43.416;24.598;2023-05-23T02:50:53;99809.41;;;16.16;100.00
8286;BME280;4181;43.416;24.598;2023-05-23T02:53:18;99799.63;;;16.24;100.00
8286;BME280;4181;43.416;24.598;2023-05-23T02:55:44;99792.28;;;16.19;100.00
8286;BME280;4181;43.416;24.598;2023-05-23T02:58:09;99804.34;;;16.23;100.00
8286;BME280;4181;43.416;24.598;2023-05-23T03:00:35;99823.81;;;16.08;100.00
8286;BME280;4181;43.416;24.598;2023-05-23T03:03:01;99818.97;;;16.19;100.00
8286;BME280;4181;43.416;24.598;2023-05-23T03:05:26;99816.88;;;16.11;100.00
8286;BME280;4181;43.416;24.598;2023-05-23T03:07:52;99818.22;;;15.95;100.00
8286;BME280;4181;43.416;24.598;2023-05-23T03:10:26;99820.91;;;16.00;100.00
8286;BME280;4181;43.416;24.598;2023-05-23T03:12:51;99824.97;;;16.02;100.00
8286;BME280;4181;43.416;24.598;2023-05-23T03:15:17;99811.69;;;16.09;100.00
8286;BME280;4181;43.416;24.598;2023-05-23T03:17:42;99807.47;;;16.17;100.00
8286;BME280;4181;43.416;24.598;2023-05-23T03:20:08;99808.66;;;16.29;100.00
8286;BME280;4181;43.416;24.598;2023-05-23T03:22:35;99818.03;;;16.28;100.00
8286;BME280;4181;43.416;24.598;2023-05-23T03:25:00;99817.59;;;16.21;100.00
8286;BME280;4181;43.416;24.598;2023-05-23T03:27:27;99809.75;;;16.10;100.00
8286;BME280;4181;43.416;24.598;2023-05-23T03:29:53;99804.34;;;16.23;100.00
8286;BME280;4181;43.416;24.598;2023-05-23T03:32:18;99811.34;;;16.34;100.00
8286;BME280;4181;43.416;24.598;2023-05-23T03:34:43;99803.75;;;16.26;100.00
8286;BME280;4181;43.416;24.598;2023-05-23T03:37:09;99811.03;;;16.17;100.00
8286;BME280;4181;43.416;24.598;2023-05-23T03:39:35;99797.94;;;16.28;100.00
8286;BME280;4181;43.416;24.598;2023-05-23T03:42:00;99792.69;;;16.50;100.00
8286;BME280;4181;43.416;24.598;2023-05-23T03:44:26;99788.44;;;16.76;100.00
8286;BME280;4181;43.416;24.598;2023-05-23T03:46:51;99789.44;;;16.99;100.00
8286;BME280;4181;43.416;24.598;2023-05-23T03:49:17;99801.44;;;17.21;100.00
8286;BME280;4181;43.416;24.598;2023-05-23T03:51:42;99807.94;;;17.44;100.00
8286;BME280;4181;43.416;24.598;2023-05-23T03:54:07;99814.91;;;17.55;100.00
8286;BME280;4181;43.416;24.598;2023-05-23T03:56:33;99818.19;;;17.57;100.00
8286;BME280;4181;43.416;24.598;2023-05-23T03:58:59;99821.38;;;17.64;100.00
8286;BME280;4181;43.416;24.598;2023-05-23T04:01:25;99814.44;;;17.80;100.00
8286;BME280;4181;43.416;24.598;2023-05-23T04:03:51;99811.97;;;17.92;100.00
8286;BME280;4181;43.416;24.598;2023-05-23T04:06:17;99821.16;;;18.01;100.00
8286;BME280;4181;43.416;24.598;2023-05-23T04:08:44;99829.44;;;18.15;100.00
8286;BME280;4181;43.416;24.598;2023-05-23T04:11:10;99837.00;;;18.09;100.00
8286;BME280;4181;43.416;24.598;2023-05-23T04:13:35;99819.31;;;18.24;100.00
8286;BME280;4181;43.416;24.598;2023-05-23T04:16:01;99797.72;;;18.39;100.00
8286;BME280;4181;43.416;24.598;2023-05-23T04:18:30;99806.34;;;18.60;100.00
8286;BME280;4181;43.416;24.598;2023-05-23T04:20:57;99800.16;;;18.76;100.00
8286;BME280;4181;43.416;24.598;2023-05-23T04:23:23;99795.22;;;19.09;100.00
8286;BME280;4181;43.416;24.598;2023-05-23T04:25:48;99797.03;;;19.14;100.00
8286;BME280;4181;43.416;24.598;2023-05-23T04:28:15;99795.94;;;19.23;100.00
8286;BME280;4181;43.416;24.598;2023-05-23T04:30:42;99805.81;;;19.38;100.00
8286;BME280;4181;43.416;24.598;2023-05-23T04:33:07;99814.03;;;19.51;100.00
8286;BME280;4181;43.416;24.598;2023-05-23T04:35:34;99808.34;;;19.56;100.00
8286;BME280;4181;43.416;24.598;2023-05-23T04:38:03;99813.56;;;19.58;100.00
8286;BME280;4181;43.416;24.598;2023-05-23T04:40:29;99816.84;;;19.60;100.00
8286;BME280;4181;43.416;24.598;2023-05-23T04:42:55;99822.50;;;19.55;100.00
8286;BME280;4181;43.416;24.598;2023-05-23T04:45:21;99817.81;;;19.55;100.00
8286;BME280;4181;43.416;24.598;2023-05-23T04:47:47;99805.09;;;19.93;100.00
8286;BME280;4181;43.416;24.598;2023-05-23T04:50:12;99806.97;;;20.15;100.00
8286;BME280;4181;43.416;24.598;2023-05-23T04:52:41;99809.97;;;20.44;100.00
8286;BME280;4181;43.416;24.598;2023-05-23T04:55:07;99809.66;;;20.71;100.00
8286;BME280;4181;43.416;24.598;2023-05-23T04:57:35;99819.97;;;21.05;100.00
8286;BME280;4181;43.416;24.598;2023-05-23T05:00:02;99817.50;;;21.20;100.00
8286;BME280;4181;43.416;24.598;2023-05-23T05:02:31;99815.38;;;21.17;100.00
8286;BME280;4181;43.416;24.598;2023-05-23T05:04:59;99816.97;;;21.35;100.00
8286;BME280;4181;43.416;24.598;2023-05-23T05:07:25;99810.25;;;21.45;100.00
8286;BME280;4181;43.416;24.598;2023-05-23T05:09:50;99804.19;;;21.52;100.00
8286;BME280;4181;43.416;24.598;2023-05-23T05:12:15;99806.91;;;21.69;100.00
8286;BME280;4181;43.416;24.598;2023-05-23T05:14:41;99810.41;;;21.95;100.00
8286;BME280;4181;43.416;24.598;2023-05-23T05:17:06;99794.88;;;22.02;100.00
8286;BME280;4181;43.416;24.598;2023-05-23T05:19:32;99792.19;;;22.14;100.00
8286;BME280;4181;43.416;24.598;2023-05-23T05:21:57;99792.88;;;22.32;100.00
8286;BME280;4181;43.416;24.598;2023-05-23T05:24:24;99799.50;;;22.48;100.00
8286;BME280;4181;43.416;24.598;2023-05-23T05:26:49;99785.06;;;22.75;100.00
8286;BME280;4181;43.416;24.598;2023-05-23T05:29:15;99804.88;;;22.94;100.00
8286;BME280;4181;43.416;24.598;2023-05-23T05:31:41;99789.66;;;23.12;100.00
8286;BME280;4181;43.416;24.598;2023-05-23T05:34:07;99793.13;;;23.09;100.00
8286;BME280;4181;43.416;24.598;2023-05-23T05:36:33;99791.38;;;23.17;100.00
8286;BME280;4181;43.416;24.598;2023-05-23T05:38:58;99790.69;;;23.40;100.00
8286;BME280;4181;43.416;24.598;2023-05-23T05:41:23;99787.63;;;23.66;100.00
8286;BME280;4181;43.416;24.598;2023-05-23T05:43:49;99779.84;;;23.83;100.00
8286;BME280;4181;43.416;24.598;2023-05-23T05:46:15;99789.38;;;23.95;100.00
8286;BME280;4181;43.416;24.598;2023-05-23T05:48:40;99788.19;;;23.83;100.00
8286;BME280;4181;43.416;24.598;2023-05-23T05:51:06;99788.94;;;24.17;100.00
8286;BME280;4181;43.416;24.598;2023-05-23T05:53:31;99793.91;;;24.35;100.00
8286;BME280;4181;43.416;24.598;2023-05-23T05:55:56;99789.84;;;24.33;100.00
8286;BME280;4181;43.416;24.598;2023-05-23T05:58:22;99792.88;;;24.40;100.00
8286;BME280;4181;43.416;24.598;2023-05-23T06:00:47;99798.56;;;24.31;100.00
8286;BME280;4181;43.416;24.598;2023-05-23T06:03:13;99801.72;;;24.30;100.00
8286;BME280;4181;43.416;24.598;2023-05-23T06:05:40;99812.94;;;23.85;100.00
8286;BME280;4181;43.416;24.598;2023-05-23T06:08:05;99801.91;;;23.89;100.00
8286;BME280;4181;43.416;24.598;2023-05-23T06:10:31;99799.28;;;24.16;100.00
8286;BME280;4181;43.416;24.598;2023-05-23T06:12:57;99807.53;;;24.25;100.00
8286;BME280;4181;43.416;24.598;2023-05-23T06:15:23;99802.72;;;24.37;100.00
8286;BME280;4181;43.416;24.598;2023-05-23T06:17:48;99802.13;;;24.68;100.00
8286;BME280;4181;43.416;24.598;2023-05-23T06:20:14;99794.84;;;24.91;100.00
8286;BME280;4181;43.416;24.598;2023-05-23T06:22:39;99799.38;;;24.95;100.00
8286;BME280;4181;43.416;24.598;2023-05-23T06:25:05;99796.44;;;25.04;100.00
8286;BME280;4181;43.416;24.598;2023-05-23T06:27:31;99797.38;;;25.24;100.00
8286;BME280;4181;43.416;24.598;2023-05-23T06:29:56;99794.13;;;25.49;100.00
8286;BME280;4181;43.416;24.598;2023-05-23T06:32:22;99794.72;;;25.70;100.00
8286;BME280;4181;43.416;24.598;2023-05-23T06:34:47;99798.03;;;25.91;100.00
8286;BME280;4181;43.416;24.598;2023-05-23T06:37:13;99783.88;;;26.15;100.00
8286;BME280;4181;43.416;24.598;2023-05-23T06:39:38;99780.31;;;26.34;100.00
8286;BME280;4181;43.416;24.598;2023-05-23T06:42:04;99777.41;;;26.46;100.00
8286;BME280;4181;43.416;24.598;2023-05-23T06:44:29;99767.53;;;26.52;100.00
8286;BME280;4181;43.416;24.598;2023-05-23T06:46:55;99768.97;;;26.62;100.00
8286;BME280;4181;43.416;24.598;2023-05-23T06:49:23;99772.53;;;26.78;100.00
8286;BME280;4181;43.416;24.598;2023-05-23T06:51:49;99764.66;;;26.83;100.00
8286;BME280;4181;43.416;24.598;2023-05-23T06:54:14;99770.22;;;26.99;100.00
8286;BME280;4181;43.416;24.598;2023-05-23T06:56:40;99764.34;;;27.07;100.00
8286;BME280;4181;43.416;24.598;2023-05-23T06:59:05;99769.34;;;27.17;100.00
8286;BME280;4181;43.416;24.598;2023-05-23T07:01:30;99764.88;;;27.32;100.00
8286;BME280;4181;43.416;24.598;2023-05-23T07:03:56;99776.81;;;27.29;100.00
8286;BME280;4181;43.416;24.598;2023-05-23T07:06:21;99769.06;;;27.42;100.00
8286;BME280;4181;43.416;24.598;2023-05-23T07:08:47;99759.06;;;27.63;100.00
8286;BME280;4181;43.416;24.598;2023-05-23T07:11:12;99762.13;;;27.81;100.00
8286;BME280;4181;43.416;24.598;2023-05-23T07:13:38;99770.03;;;27.94;100.00
8286;BME280;4181;43.416;24.598;2023-05-23T07:16:03;99769.63;;;27.96;100.00
8286;BME280;4181;43.416;24.598;2023-05-23T07:18:29;99773.19;;;27.93;100.00
8286;BME280;4181;43.416;24.598;2023-05-23T07:20:54;99771.78;;;28.02;100.00
8286;BME280;4181;43.416;24.598;2023-05-23T07:23:22;99768.03;;;28.21;100.00
8286;BME280;4181;43.416;24.598;2023-05-23T07:25:48;99763.88;;;28.37;100.00
8286;BME280;4181;43.416;24.598;2023-05-23T07:28:14;99762.94;;;28.26;100.00
8286;BME280;4181;43.416;24.598;2023-05-23T07:30:40;99759.78;;;28.31;100.00
8286;BME280;4181;43.416;24.598;2023-05-23T07:33:06;99756.00;;;28.46;100.00
8286;BME280;4181;43.416;24.598;2023-05-23T07:35:32;99763.47;;;28.35;100.00
8286;BME280;4181;43.416;24.598;2023-05-23T07:37:57;99763.78;;;28.30;100.00
8286;BME280;4181;43.416;24.598;2023-05-23T07:40:23;99767.69;;;28.22;100.00
8286;BME280;4181;43.416;24.598;2023-05-23T07:42:48;99767.66;;;27.96;100.00
8286;BME280;4181;43.416;24.598;2023-05-23T07:45:14;99756.28;;;28.12;100.00
8286;BME280;4181;43.416;24.598;2023-05-23T07:47:40;99762.09;;;28.22;100.00
8286;BME280;4181;43.416;24.598;2023-05-23T07:50:06;99756.97;;;28.31;100.00
8286;BME280;4181;43.416;24.598;2023-05-23T07:52:32;99765.03;;;28.33;100.00
8286;BME280;4181;43.416;24.598;2023-05-23T07:55:00;99752.06;;;28.51;100.00
8286;BME280;4181;43.416;24.598;2023-05-23T07:57:32;99761.09;;;28.64;100.00
8286;BME280;4181;43.416;24.598;2023-05-23T08:00:10;99757.25;;;28.49;100.00
8286;BME280;4181;43.416;24.598;2023-05-23T08:02:39;99766.38;;;28.16;100.00
8286;BME280;4181;43.416;24.598;2023-05-23T08:05:08;99765.47;;;28.09;100.00
8286;BME280;4181;43.416;24.598;2023-05-23T08:07:40;99754.06;;;28.24;100.00
8286;BME280;4181;43.416;24.598;2023-05-23T08:13:27;99766.25;;;28.09;100.00
8286;BME280;4181;43.416;24.598;2023-05-23T08:15:59;99765.16;;;27.91;100.00
8286;BME280;4181;43.416;24.598;2023-05-23T08:18:27;99765.66;;;28.23;100.00
8286;BME280;4181;43.416;24.598;2023-05-23T08:20:55;99751.22;;;28.47;100.00
8286;BME280;4181;43.416;24.598;2023-05-23T08:23:20;99754.47;;;28.79;100.00
8286;BME280;4181;43.416;24.598;2023-05-23T08:25:45;99740.84;;;29.10;100.00
8286;BME280;4181;43.416;24.598;2023-05-23T08:28:11;99744.13;;;29.16;100.00
8286;BME280;4181;43.416;24.598;2023-05-23T08:30:36;99754.63;;;28.93;100.00
8286;BME280;4181;43.416;24.598;2023-05-23T08:33:02;99747.03;;;28.93;100.00
8286;BME280;4181;43.416;24.598;2023-05-23T08:35:31;99752.13;;;28.54;100.00
8286;BME280;4181;43.416;24.598;2023-05-23T08:38:01;99760.88;;;28.49;100.00
8286;BME280;4181;43.416;24.598;2023-05-23T08:40:29;99752.50;;;28.53;100.00
8286;BME280;4181;43.416;24.598;2023-05-23T08:42:55;99746.72;;;28.69;100.00
8286;BME280;4181;43.416;24.598;2023-05-23T08:45:21;99735.34;;;28.91;100.00
8286;BME280;4181;43.416;24.598;2023-05-23T08:47:48;99735.66;;;29.12;100.00
8286;BME280;4181;43.416;24.598;2023-05-23T08:50:16;99732.03;;;29.12;100.00
8286;BME280;4181;43.416;24.598;2023-05-23T08:52:55;99734.69;;;29.01;100.00
8286;BME280;4181;43.416;24.598;2023-05-23T08:55:27;99744.63;;;28.62;100.00
8286;BME280;4181;43.416;24.598;2023-05-23T08:58:02;99746.47;;;28.51;100.00
8286;BME280;4181;43.416;24.598;2023-05-23T09:00:30;99740.41;;;28.49;100.00
8286;BME280;4181;43.416;24.598;2023-05-23T09:02:57;99746.31;;;28.40;100.00
8286;BME280;4181;43.416;24.598;2023-05-23T09:05:23;99741.16;;;28.46;100.00
8286;BME280;4181;43.416;24.598;2023-05-23T09:07:50;99745.44;;;28.36;100.00
8286;BME280;4181;43.416;24.598;2023-05-23T09:10:16;99735.41;;;28.62;100.00
8286;BME280;4181;43.416;24.598;2023-05-23T09:12:44;99727.84;;;28.99;100.00
8286;BME280;4181;43.416;24.598;2023-05-23T09:15:10;99724.13;;;29.24;100.00
8286;BME280;4181;43.416;24.598;2023-05-23T09:17:36;99721.13;;;29.43;100.00
8286;BME280;4181;43.416;24.598;2023-05-23T09:20:14;99729.78;;;29.28;100.00
8286;BME280;4181;43.416;24.598;2023-05-23T09:22:45;99738.72;;;28.71;100.00
8286;BME280;4181;43.416;24.598;2023-05-23T09:25:12;99745.00;;;28.61;100.00
8286;BME280;4181;43.416;24.598;2023-05-23T09:27:38;99740.38;;;28.45;100.00
8286;BME280;4181;43.416;24.598;2023-05-23T09:30:07;99743.56;;;28.44;100.00
8286;BME280;4181;43.416;24.598;2023-05-23T09:32:34;99755.50;;;27.66;100.00
8286;BME280;4181;43.416;24.598;2023-05-23T09:35:04;99754.94;;;28.02;100.00
8286;BME280;4181;43.416;24.598;2023-05-23T09:39:57;99771.78;;;27.19;100.00
8286;BME280;4181;43.416;24.598;2023-05-23T09:42:23;99765.31;;;27.15;100.00
8286;BME280;4181;43.416;24.598;2023-05-23T09:44:48;99747.47;;;27.42;100.00
8286;BME280;4181;43.416;24.598;2023-05-23T09:47:15;99742.16;;;27.60;100.00
8286;BME280;4181;43.416;24.598;2023-05-23T09:49:42;99735.03;;;27.62;100.00
8286;BME280;4181;43.416;24.598;2023-05-23T09:52:08;99742.34;;;27.93;100.00
8286;BME280;4181;43.416;24.598;2023-05-23T09:54:33;99741.34;;;28.04;100.00
8286;BME280;4181;43.416;24.598;2023-05-23T09:57:00;99737.84;;;27.88;100.00
8286;BME280;4181;43.416;24.598;2023-05-23T09:59:30;99733.44;;;27.65;100.00
8286;BME280;4181;43.416;24.598;2023-05-23T10:01:59;99735.03;;;27.62;100.00
8286;BME280;4181;43.416;24.598;2023-05-23T10:04:30;99739.06;;;27.23;100.00
8286;BME280;4181;43.416;24.598;2023-05-23T10:07:00;99726.63;;;27.88;100.00
8286;BME280;4181;43.416;24.598;2023-05-23T10:09:32;99735.56;;;27.71;100.00
8286;BME280;4181;43.416;24.598;2023-05-23T10:14:42;99723.59;;;27.97;100.00
8286;BME280;4181;43.416;24.598;2023-05-23T10:17:17;99711.91;;;28.17;100.00
8286;BME280;4181;43.416;24.598;2023-05-23T10:19:51;99705.31;;;28.62;100.00
8286;BME280;4181;43.416;24.598;2023-05-23T10:22:18;99700.09;;;28.94;100.00
8286;BME280;4181;43.416;24.598;2023-05-23T10:24:45;99697.94;;;29.13;100.00
8286;BME280;4181;43.416;24.598;2023-05-23T10:27:11;99695.50;;;29.12;100.00
8286;BME280;4181;43.416;24.598;2023-05-23T10:29:37;99691.88;;;29.11;100.00
8286;BME280;4181;43.416;24.598;2023-05-23T10:32:04;99682.31;;;29.16;100.00
8286;BME280;4181;43.416;24.598;2023-05-23T10:37:05;99686.97;;;29.05;100.00
8286;BME280;4181;43.416;24.598;2023-05-23T10:39:51;99692.44;;;28.91;100.00
8286;BME280;4181;43.416;24.598;2023-05-23T10:42:30;99692.34;;;28.84;100.00
8286;BME280;4181;43.416;24.598;2023-05-23T10:45:18;99692.94;;;28.67;100.00
8286;BME280;4181;43.416;24.598;2023-05-23T10:47:47;99693.94;;;28.51;100.00
8286;BME280;4181;43.416;24.598;2023-05-23T10:50:29;99705.00;;;28.41;100.00
8286;BME280;4181;43.416;24.598;2023-05-23T10:53:02;99700.25;;;28.15;100.00
8286;BME280;4181;43.416;24.598;2023-05-23T10:55:34;99702.38;;;27.99;100.00
8286;BME280;4181;43.416;24.598;2023-05-23T10:58:18;99715.50;;;27.92;100.00
8286;BME280;4181;43.416;24.598;2023-05-23T11:00:56;99712.06;;;27.79;100.00
8286;BME280;4181;43.416;24.598;2023-05-23T11:06:40;99711.44;;;27.44;100.00
8286;BME280;4181;43.416;24.598;2023-05-23T11:09:11;99724.38;;;26.69;100.00
8286;BME280;4181;43.416;24.598;2023-05-23T11:14:15;99757.09;;;24.18;100.00
8286;BME280;4181;43.416;24.598;2023-05-23T11:16:41;99766.13;;;23.54;100.00
8286;BME280;4181;43.416;24.598;2023-05-23T11:19:20;99772.81;;;23.29;100.00
8286;BME280;4181;43.416;24.598;2023-05-23T11:22:02;99764.59;;;23.12;100.00
8286;BME280;4181;43.416;24.598;2023-05-23T11:24:47;99773.66;;;22.89;100.00
8286;BME280;4181;43.416;24.598;2023-05-23T11:27:17;99785.94;;;22.46;100.00
8286;BME280;4181;43.416;24.598;2023-05-23T11:30:00;99788.00;;;22.29;100.00
8286;BME280;4181;43.416;24.598;2023-05-23T11:32:27;99779.47;;;22.34;100.00
8286;BME280;4181;43.416;24.598;2023-05-23T11:34:53;99784.00;;;22.18;100.00
8286;BME280;4181;43.416;24.598;2023-05-23T11:37:19;99781.22;;;22.18;100.00
8286;BME280;4181;43.416;24.598;2023-05-23T11:39:45;99768.25;;;22.51;100.00
8286;BME280;4181;43.416;24.598;2023-05-23T11:42:10;99774.88;;;22.38;100.00
8286;BME280;4181;43.416;24.598;2023-05-23T11:44:36;99776.22;;;22.52;100.00
8286;BME280;4181;43.416;24.598;2023-05-23T11:47:05;99782.66;;;22.24;100.00
8286;BME280;4181;43.416;24.598;2023-05-23T11:49:34;99769.78;;;22.40;100.00
8286;BME280;4181;43.416;24.598;2023-05-23T11:52:02;99759.75;;;22.47;100.00
8286;BME280;4181;43.416;24.598;2023-05-23T11:54:28;99746.13;;;22.75;100.00
8286;BME280;4181;43.416;24.598;2023-05-23T11:56:54;99740.72;;;23.11;100.00
8286;BME280;4181;43.416;24.598;2023-05-23T11:59:24;99729.44;;;23.40;100.00
8286;BME280;4181;43.416;24.598;2023-05-23T12:01:51;99712.41;;;23.78;100.00
8286;BME280;4181;43.416;24.598;2023-05-23T12:04:16;99705.75;;;24.19;100.00
8286;BME280;4181;43.416;24.598;2023-05-23T12:06:45;99704.03;;;24.54;100.00
8286;BME280;4181;43.416;24.598;2023-05-23T12:09:11;99692.72;;;24.74;100.00
8286;BME280;4181;43.416;24.598;2023-05-23T12:11:38;99681.06;;;25.00;100.00
8286;BME280;4181;43.416;24.598;2023-05-23T12:14:04;99679.03;;;25.28;100.00
8286;BME280;4181;43.416;24.598;2023-05-23T12:16:33;99689.38;;;25.28;100.00
8286;BME280;4181;43.416;24.598;2023-05-23T12:19:03;99681.94;;;25.63;100.00
8286;BME280;4181;43.416;24.598;2023-05-23T12:21:46;99664.50;;;25.85;100.00
8286;BME280;4181;43.416;24.598;2023-05-23T12:24:17;99656.63;;;26.06;100.00
8286;BME280;4181;43.416;24.598;2023-05-23T12:26:54;99659.59;;;25.97;100.00
8286;BME280;4181;43.416;24.598;2023-05-23T12:29:27;99649.81;;;26.23;100.00
8286;BME280;4181;43.416;24.598;2023-05-23T12:31:53;99665.09;;;25.94;100.00
8286;BME280;4181;43.416;24.598;2023-05-23T12:34:19;99658.25;;;26.07;100.00
8286;BME280;4181;43.416;24.598;2023-05-23T12:36:46;99659.44;;;25.90;100.00
8286;BME280;4181;43.416;24.598;2023-05-23T12:39:13;99661.94;;;25.95;100.00
8286;BME280;4181;43.416;24.598;2023-05-23T12:41:41;99646.72;;;26.28;100.00
8286;BME280;4181;43.416;24.598;2023-05-23T12:44:07;99645.31;;;26.37;100.00
8286;BME280;4181;43.416;24.598;2023-05-23T12:46:33;99649.69;;;26.54;100.00
8286;BME280;4181;43.416;24.598;2023-05-23T12:48:58;99644.22;;;26.42;100.00
8286;BME280;4181;43.416;24.598;2023-05-23T12:51:24;99641.66;;;26.33;100.00
8286;BME280;4181;43.416;24.598;2023-05-23T12:53:49;99641.72;;;26.37;100.00
8286;BME280;4181;43.416;24.598;2023-05-23T12:56:15;99634.38;;;26.29;100.00
8286;BME280;4181;43.416;24.598;2023-05-23T12:58:40;99632.16;;;26.18;100.00
8286;BME280;4181;43.416;24.598;2023-05-23T13:01:06;99647.56;;;26.12;100.00
8286;BME280;4181;43.416;24.598;2023-05-23T13:03:31;99626.56;;;26.18;100.00
8286;BME280;4181;43.416;24.598;2023-05-23T13:05:57;99618.75;;;26.47;100.00
8286;BME280;4181;43.416;24.598;2023-05-23T13:08:23;99609.38;;;26.77;100.00
8286;BME280;4181;43.416;24.598;2023-05-23T13:10:49;99606.84;;;26.69;100.00
8286;BME280;4181;43.416;24.598;2023-05-23T13:13:14;99595.41;;;27.00;100.00
8286;BME280;4181;43.416;24.598;2023-05-23T13:15:40;99598.75;;;27.09;100.00
8286;BME280;4181;43.416;24.598;2023-05-23T13:18:05;99605.22;;;27.13;100.00
8286;BME280;4181;43.416;24.598;2023-05-23T13:20:31;99606.31;;;26.86;100.00
8286;BME280;4181;43.416;24.598;2023-05-23T13:22:56;99598.50;;;26.95;100.00